• Join FlightAware (Why Join?)
  • Login
  • US Flag 
04:42PM EST


 

Airport Tracker/Info


-or-


 

Live Flight TrackerFlight Track Log ✈ AAL667 ✈ 25-Apr-2013 ✈ KDFW - KABQ

Flight Track Log - Related Links

Times and Time Zones

All times are in EDT time to prevent confusion due to time zone crossing. See the AAL667 flight status page for this flight to view local times or setup timezone preferences in your user account.

Time Position Orientation Groundspeed Altitude Reporting Facility
EDT Latitude Longitude Course Direction KTS MPH feet Rate Location/Type
11:50PM 32.8667 -97.0500 293° West 175 201 2,700  Level Dallas / Fort Worth TRACON
11:51PM 32.8167 -97.0500 180° South 212 244 4,800 2,300 Climbing Dallas / Fort Worth TRACON
11:52PM 32.6959 -97.0707 257° West  Level FlightAware Approximate
11:52PM 32.7667 -97.1000 220° Southwest 273 314 7,300  Level Dallas / Fort Worth TRACON
11:53PM 32.6833 -97.1894 270° West  Level FlightAware Approximate
11:54PM 32.7020 -97.3056 293° West  Level FlightAware Approximate
11:55PM 32.7423 -97.4162 293° West  Level FlightAware Approximate
11:55PM 32.8042 -97.3319 281° West 319 367 12,700  Level Fort Worth Center
11:56PM 32.7823 -97.5269 293° West  Level FlightAware Approximate
11:56PM 32.8292 -97.4308 287° West 342 394 15,400  Level Fort Worth Center
11:57PM 32.8731 -97.5494 294° West 352 405 18,200 2,400 Climbing Fort Worth Center
11:58PM 32.9083 -97.6558 292° West 373 429 20,200 2,300 Climbing Fort Worth Center
11:59PM 32.9456 -97.7772 290° West 373 429 22,800 2,050 Climbing Fort Worth Center
12:00AM 32.9869 -97.8939 293° West 378 435 24,300 1,500 Climbing Fort Worth Center
12:01AM 33.0261 -98.0131 291° West 384 442 25,800 1,550 Climbing Fort Worth Center
12:02AM 33.0672 -98.1322 292° West 391 450 27,400 1,550 Climbing Fort Worth Center
12:03AM 33.1039 -98.2567 289° West 397 457 28,900 1,600 Climbing Fort Worth Center
12:04AM 33.1447 -98.3761 292° West 391 450 30,600 1,500 Climbing Fort Worth Center
12:05AM 33.1814 -98.4906 291° West 381 438 31,900 1,250 Climbing Fort Worth Center
12:06AM 33.2222 -98.6103 292° West 376 433 33,100 1,050 Climbing Fort Worth Center
12:07AM 33.2586 -98.7253 291° West 376 433 34,000 450 Climbing Fort Worth Center
12:08AM 33.2928 -98.8400 290° West 376 433 34,000  Level Fort Worth Center
12:09AM 33.3331 -98.9550 293° West 371 427 34,000  Level Fort Worth Center
12:10AM 33.3672 -99.0675 290° West 371 427 34,000  Level Fort Worth Center
12:11AM 33.4053 -99.1828 292° West 371 427 34,000  Level Fort Worth Center
12:12AM 33.4433 -99.2956 292° West 371 427 34,000  Level Fort Worth Center
12:13AM 33.4792 -99.4108 290° West 371 427 34,000  Level Fort Worth Center
12:14AM 33.5147 -99.5261 290° West 371 427 34,000  Level Fort Worth Center
12:15AM 33.5503 -99.6417 290° West 371 427 34,000  Level Fort Worth Center
12:16AM 33.5858 -99.7572 290° West 371 427 34,000  Level Fort Worth Center
12:17AM 33.6192 -99.8656 290° West 378 435 34,000  Level Fort Worth Center
12:18AM 33.6544 -99.9811 290° West 378 435 34,000  Level Fort Worth Center
12:19AM 33.6897 -100.0944 291° West 373 429 34,000  Level Fort Worth Center
12:20AM 33.7267 -100.2106 291° West 373 429 34,000  Level Fort Worth Center
12:21AM 33.7617 -100.3292 290° West 373 429 34,000  Level Fort Worth Center
12:22AM 33.7986 -100.4453 291° West 373 429 34,000  Level Fort Worth Center
12:23AM 33.8331 -100.5642 289° West 373 429 34,000  Level Fort Worth Center
12:24AM 33.8719 -100.6756 293° West 373 429 34,000  Level Fort Worth Center
12:25AM 33.9042 -100.7994 287° West 373 429 34,000  Level Fort Worth Center
12:26AM 33.9406 -100.9183 290° West 373 429 34,000  Level Fort Worth Center
12:27AM 33.9786 -101.0503 289° West 373 429 34,000  Level Fort Worth Center
12:28AM 34.0108 -101.1542 291° West 373 429 34,000  Level Fort Worth Center
12:29AM 34.0467 -101.2836 289° West 373 429 34,000  Level Fort Worth Center
12:30AM 34.0808 -101.3931 291° West 378 435 34,000  Level Fort Worth Center
12:31AM 34.1183 -101.5200 290° West 372 428 34,000  Level Fort Worth Center
12:32AM 34.1539 -101.6422 289° West 372 428 34,000  Level Fort Worth Center
12:34AM 34.2172 -101.8614 289° West 375 432 34,000  Level Albuquerque Center
12:35AM 34.2517 -101.9811 289° West 376 433 34,000  Level Albuquerque Center
12:36AM 34.2861 -102.1014 289° West 378 435 34,000  Level Albuquerque Center
12:37AM 34.3189 -102.2172 289° West 371 427 34,000  Level Albuquerque Center
12:38AM 34.3531 -102.3364 289° West 370 426 34,000  Level Albuquerque Center
12:39AM 34.3872 -102.4542 289° West 370 426 34,000  Level Albuquerque Center
12:40AM 34.4203 -102.5725 289° West 371 427 34,000  Level Albuquerque Center
12:41AM 34.4539 -102.6922 289° West 373 429 34,000  Level Albuquerque Center
12:42AM 34.4919 -102.8256 289° West 373 429 34,000  Level Albuquerque Center
12:43AM 34.5086 -102.9469 279° West 365 420 34,000  Level Albuquerque Center
12:44AM 34.5228 -103.0692 278° West 364 419 34,000  Level Albuquerque Center
12:45AM 34.5389 -103.1928 279° West 366 421 34,000  Level Albuquerque Center
12:46AM 34.5531 -103.3139 278° West 362 417 34,000  Level Albuquerque Center
12:47AM 34.5678 -103.4347 278° West 359 413 34,000  Level Albuquerque Center
12:48AM 34.5814 -103.5581 278° West 363 418 34,000  Level Albuquerque Center
12:49AM 34.6064 -103.6783 284° West 364 419 34,000  Level Albuquerque Center
12:50AM 34.6364 -103.7956 287° West 363 418 34,000  Level Albuquerque Center
12:51AM 34.6644 -103.9150 286° West 363 418 34,000  Level Albuquerque Center
12:52AM 34.6936 -104.0333 287° West 362 417 34,000  Level Albuquerque Center
12:53AM 34.7231 -104.1522 287° West 362 417 34,000  Level Albuquerque Center
12:54AM 34.7519 -104.2719 286° West 364 419 34,000  Level Albuquerque Center
12:55AM 34.7808 -104.3911 286° West 363 418 34,000 -295 Level Albuquerque Center
12:56AM 34.8097 -104.5103 286° West 363 418 33,400 -942 Descending Albuquerque Center
12:57AM 34.8369 -104.6331 285° West 368 423 32,100 -1,488 Descending Albuquerque Center
12:58AM 34.8486 -104.7611 276° West 375 432 30,400 -1,721 Descending Albuquerque Center
12:59AM 34.8600 -104.8897 276° West 377 434 28,600 -1,869 Descending Albuquerque Center
01:00AM 34.8719 -105.0189 276° West 378 435 26,600 -1,983 Descending Albuquerque Center
01:01AM 34.8833 -105.1447 276° West 373 429 24,600 -1,983 Descending Albuquerque Center
01:02AM 34.8944 -105.2714 276° West 373 429 22,600 -1,475 Descending Albuquerque Center
01:03AM 34.9078 -105.3944 278° West 366 421 21,600 -793 Descending Albuquerque Center
01:04AM 34.9169 -105.5078 276° West 343 395 21,000 -893 Descending Albuquerque Center
01:05AM 34.9256 -105.6142 276° West 320 368 19,800 -1,319 Descending Albuquerque Center
01:05AM 34.9278 -105.6706 273° West 312 359 19,000 -1,574 Descending Albuquerque Center
01:06AM 34.9342 -105.7231 278° West 320 368 18,200 -1,500 Descending Albuquerque Center
01:07AM 34.9386 -105.8000 274° West 334 384 17,200 -1,475 Descending Albuquerque Center
01:07AM 34.9428 -105.8381 278° West 334 384 16,700 -1,279 Descending Albuquerque Center
01:08AM 34.9467 -105.9147 274° West 342 394 15,900 -1,200 Descending Albuquerque Center
01:08AM 34.9514 -105.9450 281° West 336 387 15,500 -1,377 Descending Albuquerque Center
01:09AM 34.9564 -106.0289 274° West 314 361 14,500 -1,279 Descending Albuquerque Center
01:09AM 34.9575 -106.0483 274° West 313 360 14,200 -1,000 Descending Albuquerque Center
01:10AM 34.9550 -106.1278 268° West 290 334 13,500 -1,082 Descending Albuquerque Center
01:10AM 34.9561 -106.1481 274° West 298 343 13,100 -885 Descending Albuquerque Center
01:11AM 34.9572 -106.2231 271° West 279 321 12,600 -600 Descending Albuquerque Center
01:11AM 34.9586 -106.2419 275° West 283 326 12,500 -1,000 Descending Albuquerque Center
01:12AM 34.9586 -106.3161 270° West 273 314 11,600 -1,082 Descending Albuquerque Center
01:12AM 34.9592 -106.3347 272° West 277 319 11,400 -984 Descending Albuquerque Center
01:13AM 34.9497 -106.4092 261° West 284 327 10,600 -1,082 Descending Albuquerque Center
01:13AM 34.9406 -106.4261 237° Southwest 288 331 10,300 -1,091 Descending Albuquerque Center
01:14AM 34.9169 -106.4903 246° West 287 330 9,600 -984 Descending Albuquerque Center
01:14AM 34.9075 -106.5144 245° Southwest 286 329 9,300 -1,000 Descending Albuquerque Center
01:15AM 34.8850 -106.5761 246° West 281 323 8,600 -1,000 Descending Albuquerque Center
01:15AM 34.8742 -106.6011 242° Southwest 284 327 8,300 -885 Descending Albuquerque Center
01:16AM 34.8708 -106.6653 266° West 259 298 7,700 -787 Descending Albuquerque Center
01:16AM 34.8719 -106.6892 273° West 268 308 7,500 -462 Descending Albuquerque Center